Time,TemperatureF,DewpointF,PressureIn,WindDirection,WindDirectionDegrees,WindSpeedMPH,WindSpeedGustMPH,Humidity,HourlyPrecipIn,Conditions,Clouds,dailyrainin,SoftwareType,DateUTC
2013-02-01 00:04:00,29.3,12.0,29.49,West,268,0.0,7.0,48,0.00,,,0.00,Wunderground v.1.15,2013-02-01 05:04:00,
2013-02-01 00:09:00,29.3,11.1,29.49,WSW,247,1.0,1.0,46,0.00,,,0.00,Wunderground v.1.15,2013-02-01 05:09:00,
2013-02-01 00:15:00,29.3,11.1,29.50,West,274,1.0,3.0,46,0.00,,,0.00,Wunderground v.1.15,2013-02-01 05:15:00,
2013-02-01 00:20:00,29.3,12.0,29.50,West,271,1.0,7.0,48,0.00,,,0.00,Wunderground v.1.15,2013-02-01 05:20:00,
2013-02-01 00:25:00,29.3,11.1,29.50,SW,236,1.0,7.0,46,0.00,,,0.00,Wunderground v.1.15,2013-02-01 05:25:00,
2013-02-01 00:30:00,29.1,11.4,29.50,WSW,251,1.0,1.0,47,0.00,,,0.00,Wunderground v.1.15,2013-02-01 05:30:00,
2013-02-01 00:35:00,29.1,11.4,29.50,NNW,347,0.0,7.0,47,0.00,,,0.00,Wunderground v.1.15,2013-02-01 05:35:00,
2013-02-01 00:45:00,29.1,11.8,29.51,West,271,1.0,7.0,48,0.00,,,0.00,Wunderground v.1.15,2013-02-01 05:45:00,
2013-02-01 00:50:00,29.0,11.7,29.51,West,278,1.0,1.0,48,0.00,,,0.00,Wunderground v.1.15,2013-02-01 05:50:00,
2013-02-01 00:55:00,29.0,12.2,29.51,WSW,256,1.0,4.0,49,0.00,,,0.00,Wunderground v.1.15,2013-02-01 05:55:00,
2013-02-01 01:00:00,29.0,12.2,29.51,West,281,1.0,2.0,49,0.00,,,0.00,Wunderground v.1.15,2013-02-01 06:00:00,
2013-02-01 01:09:00,28.8,12.0,29.51,SE,126,0.0,2.0,49,0.00,,,0.00,Wunderground v.1.15,2013-02-01 06:09:00,
2013-02-01 01:19:00,28.7,12.4,29.52,West,260,0.0,0.0,50,0.00,,,0.00,Wunderground v.1.15,2013-02-01 06:19:00,
2013-02-01 01:24:00,28.5,12.2,29.52,WSW,253,0.0,0.0,50,0.00,,,0.00,Wunderground v.1.15,2013-02-01 06:24:00,
2013-02-01 01:30:00,28.4,12.1,29.52,SSW,209,0.0,0.0,50,0.00,,,0.00,Wunderground v.1.15,2013-02-01 06:30:00,
2013-02-01 01:35:00,28.4,11.2,29.52,WSW,256,1.0,2.0,48,0.00,,,0.00,Wunderground v.1.15,2013-02-01 06:35:00,
2013-02-01 01:40:00,28.4,11.6,29.52,West,268,1.0,1.0,49,0.00,,,0.00,Wunderground v.1.15,2013-02-01 06:40:00,
2013-02-01 01:50:00,28.4,11.2,29.52,WSW,248,1.0,1.0,48,0.00,,,0.00,Wunderground v.1.15,2013-02-01 06:50:00,
2013-02-01 01:55:00,28.4,11.6,29.52,WSW,250,1.0,1.0,49,0.00,,,0.00,Wunderground v.1.15,2013-02-01 06:55:00,
2013-02-01 02:00:00,28.2,11.5,29.53,West,263,1.0,1.0,49,0.00,,,0.00,Wunderground v.1.15,2013-02-01 07:00:00,
2013-02-01 02:05:00,28.2,11.0,29.53,NW,304,1.0,4.0,48,0.00,,,0.00,Wunderground v.1.15,2013-02-01 07:05:00,
2013-02-01 02:10:00,28.1,10.9,29.53,SW,216,1.0,4.0,48,0.00,,,0.00,Wunderground v.1.15,2013-02-01 07:10:00,
2013-02-01 02:15:00,28.1,10.9,29.54,WNW,296,1.0,4.0,48,0.00,,,0.00,Wunderground v.1.15,2013-02-01 07:15:00,
2013-02-01 02:25:00,27.9,10.7,29.54,SW,236,1.0,4.0,48,0.00,,,0.00,Wunderground v.1.15,2013-02-01 07:25:00,
2013-02-01 02:30:00,27.8,10.6,29.54,West,277,1.0,1.0,48,0.00,,,0.00,Wunderground v.1.15,2013-02-01 07:30:00,
2013-02-01 02:35:00,27.8,10.6,29.54,West,280,1.0,4.0,48,0.00,,,0.00,Wunderground v.1.15,2013-02-01 07:35:00,
2013-02-01 02:40:00,27.8,11.1,29.54,WSW,247,1.0,4.0,49,0.00,,,0.00,Wunderground v.1.15,2013-02-01 07:40:00,
2013-02-01 02:49:00,27.6,10.0,29.54,NW,309,1.0,1.0,47,0.00,,,0.00,Wunderground v.1.15,2013-02-01 07:49:00,
2013-02-01 02:55:00,27.6,10.0,29.54,NE,34,1.0,4.0,47,0.00,,,0.00,Wunderground v.1.15,2013-02-01 07:55:00,
2013-02-01 03:04:00,27.6,10.4,29.54,SW,224,1.0,4.0,48,0.00,,,0.00,Wunderground v.1.15,2013-02-01 08:04:00,
2013-02-01 03:09:00,27.5,9.4,29.54,WNW,285,1.0,1.0,46,0.00,,,0.00,Wunderground v.1.15,2013-02-01 08:09:00,
2013-02-01 03:14:00,27.5,9.9,29.55,WNW,285,1.0,2.0,47,0.00,,,0.00,Wunderground v.1.15,2013-02-01 08:14:00,
2013-02-01 03:19:00,27.5,10.4,29.55,West,280,1.0,1.0,48,0.00,,,0.00,Wunderground v.1.15,2013-02-01 08:19:00,
2013-02-01 03:29:00,27.3,9.2,29.55,WNW,288,1.0,1.0,46,0.00,,,0.00,Wunderground v.1.15,2013-02-01 08:29:00,
2013-02-01 03:34:00,27.3,8.7,29.55,WNW,302,1.0,4.0,45,0.00,,,0.00,Wunderground v.1.15,2013-02-01 08:34:00,
2013-02-01 03:39:00,27.3,9.7,29.55,North,359,0.0,4.0,47,0.00,,,0.00,Wunderground v.1.15,2013-02-01 08:39:00,
2013-02-01 03:44:00,27.2,10.1,29.56,WNW,292,0.0,4.0,48,0.00,,,0.00,Wunderground v.1.15,2013-02-01 08:44:00,
2013-02-01 03:49:00,27.2,10.1,29.56,West,260,0.0,4.0,48,0.00,,,0.00,Wunderground v.1.15,2013-02-01 08:49:00,
2013-02-01 03:55:00,27.0,10.4,29.56,WSW,247,0.0,4.0,49,0.00,,,0.00,Wunderground v.1.15,2013-02-01 08:55:00,
2013-02-01 04:04:00,27.0,9.9,29.56,SW,222,0.0,4.0,48,0.00,,,0.00,Wunderground v.1.15,2013-02-01 09:04:00,
2013-02-01 04:10:00,26.9,9.8,29.56,NNE,23,0.0,4.0,48,0.00,,,0.00,Wunderground v.1.15,2013-02-01 09:10:00,
2013-02-01 04:15:00,26.9,9.3,29.57,SE,128,0.0,4.0,47,0.00,,,0.00,Wunderground v.1.15,2013-02-01 09:15:00,
2013-02-01 04:20:00,26.9,9.3,29.57,West,263,1.0,4.0,47,0.00,,,0.00,Wunderground v.1.15,2013-02-01 09:20:00,
2013-02-01 04:25:00,26.9,8.4,29.57,NNW,336,1.0,4.0,45,0.00,,,0.00,Wunderground v.1.15,2013-02-01 09:25:00,
2013-02-01 04:35:00,26.9,9.8,29.57,WNW,282,1.0,4.0,48,0.00,,,0.00,Wunderground v.1.15,2013-02-01 09:35:00,
2013-02-01 04:40:00,26.9,9.3,29.57,West,271,1.0,5.0,47,0.00,,,0.00,Wunderground v.1.15,2013-02-01 09:40:00,
2013-02-01 04:45:00,26.7,8.7,29.57,West,267,1.0,5.0,46,0.00,,,0.00,Wunderground v.1.15,2013-02-01 09:45:00,
2013-02-01 04:50:00,26.7,9.1,29.57,WNW,289,0.0,4.0,47,0.00,,,0.00,Wunderground v.1.15,2013-02-01 09:50:00,
2013-02-01 04:55:00,26.7,9.1,29.57,West,268,0.0,4.0,47,0.00,,,0.00,Wunderground v.1.15,2013-02-01 09:55:00,
2013-02-01 05:00:00,26.6,9.5,29.57,ESE,112,0.0,4.0,48,0.00,,,0.00,Wunderground v.1.15,2013-02-01 10:00:00,
2013-02-01 05:10:00,26.4,9.3,29.57,West,280,0.0,4.0,48,0.00,,,0.00,Wunderground v.1.15,2013-02-01 10:10:00,
2013-02-01 05:19:00,26.3,10.2,29.58,West,263,0.0,4.0,50,0.00,,,0.00,Wunderground v.1.15,2013-02-01 10:19:00,
2013-02-01 05:24:00,26.3,10.2,29.58,West,260,0.0,4.0,50,0.00,,,0.00,Wunderground v.1.15,2013-02-01 10:24:00,
2013-02-01 05:29:00,26.1,10.4,29.59,West,268,0.0,4.0,51,0.00,,,0.00,Wunderground v.1.15,2013-02-01 10:29:00,
2013-02-01 05:34:00,26.1,10.0,29.59,West,275,0.0,4.0,50,0.00,,,0.00,Wunderground v.1.15,2013-02-01 10:34:00,
2013-02-01 05:44:00,26.0,10.8,29.59,WNW,285,0.0,4.0,52,0.00,,,0.00,Wunderground v.1.15,2013-02-01 10:44:00,
2013-02-01 05:49:00,26.0,10.8,29.59,West,278,0.0,4.0,52,0.00,,,0.00,Wunderground v.1.15,2013-02-01 10:49:00,
2013-02-01 05:54:00,25.8,10.1,29.59,SW,224,0.0,4.0,51,0.00,,,0.00,Wunderground v.1.15,2013-02-01 10:54:00,
2013-02-01 05:59:00,25.8,10.6,29.60,SW,224,0.0,4.0,52,0.00,,,0.00,Wunderground v.1.15,2013-02-01 10:59:00,
2013-02-01 06:05:00,25.7,10.5,29.60,WSW,250,0.0,4.0,52,0.00,,,0.00,Wunderground v.1.15,2013-02-01 11:05:00,
2013-02-01 06:14:00,25.7,10.0,29.60,West,261,0.0,4.0,51,0.00,,,0.00,Wunderground v.1.15,2013-02-01 11:14:00,
2013-02-01 06:19:00,25.7,10.0,29.60,South,179,0.0,4.0,51,0.00,,,0.00,Wunderground v.1.15,2013-02-01 11:19:00,
2013-02-01 06:25:00,25.7,9.6,29.60,SW,234,1.0,4.0,50,0.00,,,0.00,Wunderground v.1.15,2013-02-01 11:25:00,
2013-02-01 06:30:00,25.7,9.2,29.60,NW,312,0.0,4.0,49,0.00,,,0.00,Wunderground v.1.15,2013-02-01 11:30:00,
2013-02-01 06:35:00,25.7,9.6,29.60,West,274,0.0,4.0,50,0.00,,,0.00,Wunderground v.1.15,2013-02-01 11:35:00,
2013-02-01 06:40:00,25.7,9.6,29.60,SE,140,0.0,4.0,50,0.00,,,0.00,Wunderground v.1.15,2013-02-01 11:40:00,
2013-02-01 06:50:00,25.6,10.0,29.61,ESE,117,0.0,4.0,51,0.00,,,0.00,Wunderground v.1.15,2013-02-01 11:50:00,
2013-02-01 06:55:00,25.4,9.8,29.61,WSW,248,0.0,4.0,51,0.00,,,0.00,Wunderground v.1.15,2013-02-01 11:55:00,
2013-02-01 07:00:00,25.4,9.8,29.62,West,260,0.0,4.0,51,0.00,,,0.00,Wunderground v.1.15,2013-02-01 12:00:00,
2013-02-01 07:05:00,25.4,9.8,29.62,West,260,0.0,4.0,51,0.00,,,0.00,Wunderground v.1.15,2013-02-01 12:05:00,
2013-02-01 07:10:00,25.3,9.2,29.62,SW,227,0.0,4.0,50,0.00,,,0.00,Wunderground v.1.15,2013-02-01 12:10:00,
2013-02-01 07:20:00,25.3,10.1,29.64,SW,216,0.0,4.0,52,0.00,,,0.00,Wunderground v.1.15,2013-02-01 12:20:00,
2013-02-01 07:25:00,25.1,9.5,29.64,SW,217,0.0,4.0,51,0.00,,,0.00,Wunderground v.1.15,2013-02-01 12:25:00,
2013-02-01 07:30:00,25.1,9.5,29.64,SW,220,0.0,4.0,51,0.00,,,0.00,Wunderground v.1.15,2013-02-01 12:30:00,
2013-02-01 07:35:00,25.1,9.0,29.64,SW,220,0.0,4.0,50,0.00,,,0.00,Wunderground v.1.15,2013-02-01 12:35:00,
2013-02-01 07:44:00,25.3,8.8,29.65,WSW,241,0.0,4.0,49,0.00,,,0.00,Wunderground v.1.15,2013-02-01 12:44:00,
2013-02-01 07:54:00,25.6,8.6,29.65,SW,233,1.0,4.0,48,0.00,,,0.00,Wunderground v.1.15,2013-02-01 12:54:00,
2013-02-01 07:59:00,25.7,9.6,29.66,ESE,114,1.0,1.0,50,0.00,,,0.00,Wunderground v.1.15,2013-02-01 12:59:00,
2013-02-01 08:04:00,25.8,8.8,29.66,South,181,0.0,4.0,48,0.00,,,0.00,Wunderground v.1.15,2013-02-01 13:04:00,
2013-02-01 08:09:00,25.8,8.8,29.66,SE,128,0.0,4.0,48,0.00,,,0.00,Wunderground v.1.15,2013-02-01 13:09:00,
2013-02-01 08:14:00,26.0,9.0,29.67,WNW,288,0.0,4.0,48,0.00,,,0.00,Wunderground v.1.15,2013-02-01 13:14:00,
2013-02-01 08:19:00,26.1,8.1,29.67,North,350,0.0,4.0,46,0.00,,,0.00,Wunderground v.1.15,2013-02-01 13:19:00,
2013-02-01 08:29:00,26.7,9.1,29.68,SW,232,0.0,4.0,47,0.00,,,0.00,Wunderground v.1.15,2013-02-01 13:29:00,
2013-02-01 08:34:00,27.0,8.9,29.68,SSE,150,0.0,4.0,46,0.00,,,0.00,Wunderground v.1.15,2013-02-01 13:34:00,
2013-02-01 08:39:00,27.2,8.6,29.68,West,267,0.0,4.0,45,0.00,,,0.00,Wunderground v.1.15,2013-02-01 13:39:00,
2013-02-01 08:44:00,27.3,8.2,29.69,West,272,1.0,4.0,44,0.00,,,0.00,Wunderground v.1.15,2013-02-01 13:44:00,
2013-02-01 08:49:00,27.6,10.0,29.69,WNW,301,1.0,1.0,47,0.00,,,0.00,Wunderground v.1.15,2013-02-01 13:49:00,
2013-02-01 08:59:00,27.9,9.3,29.69,WNW,284,0.0,4.0,45,0.00,,,0.00,Wunderground v.1.15,2013-02-01 13:59:00,
2013-02-01 09:04:00,27.8,8.7,29.69,WNW,287,1.0,4.0,44,0.00,,,0.00,Wunderground v.1.15,2013-02-01 14:04:00,
2013-02-01 09:10:00,27.8,9.7,29.69,SW,222,1.0,1.0,46,0.00,,,0.00,Wunderground v.1.15,2013-02-01 14:10:00,
2013-02-01 09:15:00,27.8,10.2,29.70,SSW,210,1.0,4.0,47,0.00,,,0.00,Wunderground v.1.15,2013-02-01 14:15:00,
2013-02-01 09:20:00,28.1,9.0,29.70,NNW,342,0.0,4.0,44,0.00,,,0.00,Wunderground v.1.15,2013-02-01 14:20:00,
2013-02-01 09:25:00,28.4,8.7,29.70,WNW,296,1.0,4.0,43,0.00,,,0.00,Wunderground v.1.15,2013-02-01 14:25:00,
2013-02-01 09:30:00,28.4,9.2,29.71,WNW,299,1.0,4.0,44,0.00,,,0.00,Wunderground v.1.15,2013-02-01 14:30:00,
2013-02-01 09:35:00,28.5,8.8,29.71,NW,320,1.0,4.0,43,0.00,,,0.00,Wunderground v.1.15,2013-02-01 14:35:00,
2013-02-01 09:40:00,28.5,8.8,29.71,NW,306,1.0,1.0,43,0.00,,,0.00,Wunderground v.1.15,2013-02-01 14:40:00,
2013-02-01 09:45:00,28.4,8.7,29.72,West,264,1.0,4.0,43,0.00,,,0.00,Wunderground v.1.15,2013-02-01 14:45:00,
2013-02-01 09:54:00,28.4,9.7,29.72,NE,49,1.0,4.0,45,0.00,,,0.00,Wunderground v.1.15,2013-02-01 14:54:00,
2013-02-01 09:59:00,29.0,10.3,29.72,NNE,31,1.0,1.0,45,0.00,,,0.00,Wunderground v.1.15,2013-02-01 14:59:00,
2013-02-01 10:09:00,29.7,8.8,29.72,NNW,339,1.0,1.0,41,0.00,,,0.00,Wunderground v.1.15,2013-02-01 15:09:00,
2013-02-01 10:14:00,29.8,8.9,29.73,West,275,1.0,4.0,41,0.00,,,0.00,Wunderground v.1.15,2013-02-01 15:14:00,
2013-02-01 10:19:00,29.8,7.8,29.73,West,268,1.0,1.0,39,0.00,,,0.00,Wunderground v.1.15,2013-02-01 15:19:00,
2013-02-01 10:24:00,30.1,9.7,29.73,West,268,0.0,4.0,42,0.00,,,0.00,Wunderground v.1.15,2013-02-01 15:24:00,
2013-02-01 10:29:00,30.1,8.1,29.73,WSW,257,1.0,4.0,39,0.00,,,0.00,Wunderground v.1.15,2013-02-01 15:29:00,
2013-02-01 10:39:00,30.4,8.4,29.73,West,260,1.0,4.0,39,0.00,,,0.00,Wunderground v.1.15,2013-02-01 15:39:00,
2013-02-01 10:44:00,30.9,9.9,29.73,West,264,1.0,4.0,41,0.00,,,0.00,Wunderground v.1.15,2013-02-01 15:44:00,
2013-02-01 10:49:00,30.6,10.2,29.73,West,272,2.0,4.0,42,0.00,,,0.00,Wunderground v.1.15,2013-02-01 15:49:00,
2013-02-01 10:54:00,30.7,9.7,29.73,WNW,291,1.0,5.0,41,0.00,,,0.00,Wunderground v.1.15,2013-02-01 15:54:00,
2013-02-01 10:59:00,30.4,8.4,29.73,SW,215,1.0,4.0,39,0.00,,,0.00,Wunderground v.1.15,2013-02-01 15:59:00,
2013-02-01 11:04:00,30.1,6.9,29.73,SSE,165,1.0,4.0,37,0.00,,,0.00,Wunderground v.1.15,2013-02-01 16:04:00,
2013-02-01 11:14:00,29.4,7.5,29.73,NNE,30,1.0,4.0,39,0.00,,,0.00,Wunderground v.1.15,2013-02-01 16:14:00,
2013-02-01 11:19:00,29.1,7.2,29.73,WNW,298,1.0,4.0,39,0.00,,,0.00,Wunderground v.1.15,2013-02-01 16:19:00,
2013-02-01 11:25:00,29.4,6.9,29.73,SSW,203,1.0,4.0,38,0.00,,,0.00,Wunderground v.1.15,2013-02-01 16:25:00,
2013-02-01 11:30:00,29.4,7.5,29.72,WSW,251,1.0,1.0,39,0.00,,,0.00,Wunderground v.1.15,2013-02-01 16:30:00,
2013-02-01 11:35:00,29.7,7.7,29.72,SE,127,0.0,5.0,39,0.00,,,0.00,Wunderground v.1.15,2013-02-01 16:35:00,
2013-02-01 11:45:00,30.1,8.1,29.71,NE,40,1.0,4.0,39,0.00,,,0.00,Wunderground v.1.15,2013-02-01 16:45:00,
2013-02-01 11:50:00,30.1,6.3,29.71,SSE,147,1.0,4.0,36,0.00,,,0.00,Wunderground v.1.15,2013-02-01 16:50:00,
2013-02-01 11:55:00,30.1,6.9,29.71,ENE,69,1.0,4.0,37,0.00,,,0.00,Wunderground v.1.15,2013-02-01 16:55:00,
2013-02-01 12:00:00,30.4,6.0,29.69,WNW,288,1.0,4.0,35,0.00,,,0.00,Wunderground v.1.15,2013-02-01 17:00:00,
2013-02-01 12:05:00,31.0,8.9,29.69,NNE,27,1.0,4.0,39,0.00,,,0.00,Wunderground v.1.15,2013-02-01 17:05:00,
2013-02-01 12:15:00,31.5,8.2,29.70,WNW,294,1.0,4.0,37,0.00,,,0.00,Wunderground v.1.15,2013-02-01 17:15:00,
2013-02-01 12:20:00,32.1,6.8,29.70,South,171,1.0,4.0,34,0.00,,,0.00,Wunderground v.1.15,2013-02-01 17:20:00,
2013-02-01 12:29:00,31.9,5.3,29.70,East,96,1.0,4.0,32,0.00,,,0.00,Wunderground v.1.15,2013-02-01 17:29:00,
2013-02-01 12:34:00,31.9,6.0,29.70,WSW,241,1.0,4.0,33,0.00,,,0.00,Wunderground v.1.15,2013-02-01 17:34:00,
2013-02-01 12:39:00,32.1,6.8,29.70,WSW,244,1.0,4.0,34,0.00,,,0.00,Wunderground v.1.15,2013-02-01 17:39:00,
2013-02-01 12:44:00,32.4,6.4,29.71,SSW,198,1.0,4.0,33,0.00,,,0.00,Wunderground v.1.15,2013-02-01 17:44:00,
2013-02-01 12:54:00,31.8,5.9,29.71,ESE,119,1.0,4.0,33,0.00,,,0.00,Wunderground v.1.15,2013-02-01 17:54:00,
2013-02-01 12:59:00,31.6,9.4,29.70,SSE,148,1.0,1.0,39,0.00,,,0.00,Wunderground v.1.15,2013-02-01 17:59:00,
2013-02-01 13:04:00,31.6,6.4,29.70,WNW,291,1.0,4.0,34,0.00,,,0.00,Wunderground v.1.15,2013-02-01 18:04:00,
2013-02-01 13:09:00,31.5,6.3,29.70,East,97,1.0,1.0,34,0.00,,,0.00,Wunderground v.1.15,2013-02-01 18:09:00,
2013-02-01 13:14:00,31.3,6.8,29.70,ENE,61,1.0,4.0,35,0.00,,,0.00,Wunderground v.1.15,2013-02-01 18:14:00,
2013-02-01 13:24:00,31.5,8.8,29.70,East,95,1.0,8.0,38,0.00,,,0.00,Wunderground v.1.15,2013-02-01 18:24:00,
2013-02-01 13:29:00,31.3,8.0,29.69,SW,215,1.0,4.0,37,0.00,,,0.00,Wunderground v.1.15,2013-02-01 18:29:00,
2013-02-01 13:34:00,30.7,8.6,29.69,ENE,61,1.0,4.0,39,0.00,,,0.00,Wunderground v.1.15,2013-02-01 18:34:00,
2013-02-01 13:39:00,30.4,8.4,29.69,SW,230,1.0,4.0,39,0.00,,,0.00,Wunderground v.1.15,2013-02-01 18:39:00,
2013-02-01 13:45:00,30.4,7.2,29.69,WNW,284,1.0,4.0,37,0.00,,,0.00,Wunderground v.1.15,2013-02-01 18:45:00,
2013-02-01 13:50:00,30.3,7.7,29.69,SSW,210,2.0,2.0,38,0.00,,,0.00,Wunderground v.1.15,2013-02-01 18:50:00,
2013-02-01 14:00:00,30.4,7.2,29.70,WSW,248,0.0,4.0,37,0.00,,,0.00,Wunderground v.1.15,2013-02-01 19:00:00,
2013-02-01 14:05:00,30.4,7.8,29.70,WNW,302,1.0,4.0,38,0.00,,,0.00,Wunderground v.1.15,2013-02-01 19:05:00,
2013-02-01 14:10:00,30.4,7.8,29.70,South,178,1.0,4.0,38,0.00,,,0.00,Wunderground v.1.15,2013-02-01 19:10:00,
2013-02-01 14:15:00,30.4,7.8,29.71,WSW,239,1.0,4.0,38,0.00,,,0.00,Wunderground v.1.15,2013-02-01 19:15:00,
2013-02-01 14:20:00,30.0,6.8,29.71,ESE,114,1.0,1.0,37,0.00,,,0.00,Wunderground v.1.15,2013-02-01 19:20:00,
2013-02-01 14:30:00,29.4,8.0,29.72,SE,128,1.0,4.0,40,0.00,,,0.00,Wunderground v.1.15,2013-02-01 19:30:00,
2013-02-01 14:35:00,29.4,6.9,29.72,East,89,1.0,4.0,38,0.00,,,0.00,Wunderground v.1.15,2013-02-01 19:35:00,
2013-02-01 14:40:00,29.4,7.5,29.72,SSW,209,1.0,4.0,39,0.00,,,0.00,Wunderground v.1.15,2013-02-01 19:40:00,
2013-02-01 14:45:00,29.4,7.5,29.72,NNE,16,1.0,4.0,39,0.00,,,0.00,Wunderground v.1.15,2013-02-01 19:45:00,
2013-02-01 14:54:00,29.3,5.6,29.72,SE,144,0.0,4.0,36,0.00,,,0.00,Wunderground v.1.15,2013-02-01 19:54:00,
2013-02-01 15:00:00,29.3,6.8,29.73,West,260,0.0,4.0,38,0.00,,,0.00,Wunderground v.1.15,2013-02-01 20:00:00,
2013-02-01 15:05:00,29.3,6.8,29.73,WNW,299,0.0,4.0,38,0.00,,,0.00,Wunderground v.1.15,2013-02-01 20:05:00,
2013-02-01 15:14:00,29.3,7.4,29.73,ESE,103,0.0,4.0,39,0.00,,,0.00,Wunderground v.1.15,2013-02-01 20:14:00,
2013-02-01 15:19:00,29.4,7.5,29.73,SE,145,0.0,7.0,39,0.00,,,0.00,Wunderground v.1.15,2013-02-01 20:19:00,
2013-02-01 15:24:00,29.4,8.0,29.73,NNW,337,1.0,7.0,40,0.00,,,0.00,Wunderground v.1.15,2013-02-01 20:24:00,
2013-02-01 15:29:00,29.4,8.6,29.74,SSE,167,1.0,4.0,41,0.00,,,0.00,Wunderground v.1.15,2013-02-01 20:29:00,
2013-02-01 15:39:00,29.0,7.1,29.74,NE,35,1.0,1.0,39,0.00,,,0.00,Wunderground v.1.15,2013-02-01 20:39:00,
2013-02-01 15:44:00,28.7,6.8,29.76,NE,52,1.0,4.0,39,0.00,,,0.00,Wunderground v.1.15,2013-02-01 20:44:00,
2013-02-01 15:49:00,28.5,7.2,29.76,South,178,1.0,1.0,40,0.00,,,0.00,Wunderground v.1.15,2013-02-01 20:49:00,
2013-02-01 15:54:00,28.4,7.7,29.76,East,85,1.0,4.0,41,0.00,,,0.00,Wunderground v.1.15,2013-02-01 20:54:00,
2013-02-01 15:59:00,28.2,7.5,29.76,ENE,59,0.0,4.0,41,0.00,,,0.00,Wunderground v.1.15,2013-02-01 20:59:00,
2013-02-01 16:09:00,27.8,6.6,29.76,SSW,200,1.0,4.0,40,0.00,,,0.00,Wunderground v.1.15,2013-02-01 21:09:00,
2013-02-01 16:14:00,27.6,7.5,29.77,ENE,59,1.0,4.0,42,0.00,,,0.00,Wunderground v.1.15,2013-02-01 21:14:00,
2013-02-01 16:19:00,27.5,7.9,29.77,WSW,237,1.0,1.0,43,0.00,,,0.00,Wunderground v.1.15,2013-02-01 21:19:00,
2013-02-01 16:24:00,27.3,7.7,29.77,WNW,302,1.0,4.0,43,0.00,,,0.00,Wunderground v.1.15,2013-02-01 21:24:00,
2013-02-01 16:30:00,27.2,8.1,29.79,NE,54,1.0,4.0,44,0.00,,,0.00,Wunderground v.1.15,2013-02-01 21:30:00,
2013-02-01 16:35:00,27.0,6.9,29.79,NW,326,0.0,4.0,42,0.00,,,0.00,Wunderground v.1.15,2013-02-01 21:35:00,
2013-02-01 16:44:00,26.9,6.8,29.80,SSE,167,1.0,4.0,42,0.00,,,0.00,Wunderground v.1.15,2013-02-01 21:44:00,
2013-02-01 16:50:00,26.7,6.6,29.80,SSW,199,0.0,4.0,42,0.00,,,0.00,Wunderground v.1.15,2013-02-01 21:50:00,
2013-02-01 16:55:00,26.7,7.2,29.80,ESE,119,0.0,4.0,43,0.00,,,0.00,Wunderground v.1.15,2013-02-01 21:55:00,
2013-02-01 17:00:00,26.6,6.6,29.81,SSE,150,0.0,4.0,42,0.00,,,0.00,Wunderground v.1.15,2013-02-01 22:00:00,
2013-02-01 17:05:00,26.6,7.1,29.81,SSE,150,0.0,4.0,43,0.00,,,0.00,Wunderground v.1.15,2013-02-01 22:05:00,
2013-02-01 17:15:00,26.3,6.8,29.82,SSE,161,0.0,4.0,43,0.00,,,0.00,Wunderground v.1.15,2013-02-01 22:15:00,
2013-02-01 17:20:00,26.3,7.8,29.82,SW,222,0.0,4.0,45,0.00,,,0.00,Wunderground v.1.15,2013-02-01 22:20:00,
2013-02-01 17:25:00,26.1,7.1,29.82,NW,320,0.0,4.0,44,0.00,,,0.00,Wunderground v.1.15,2013-02-01 22:25:00,
2013-02-01 17:30:00,26.0,6.0,29.83,SSW,212,0.0,4.0,42,0.00,,,0.00,Wunderground v.1.15,2013-02-01 22:30:00,
2013-02-01 17:35:00,26.0,7.0,29.83,SE,145,0.0,4.0,44,0.00,,,0.00,Wunderground v.1.15,2013-02-01 22:35:00,
2013-02-01 17:40:00,25.8,6.3,29.83,SSE,167,0.0,4.0,43,0.00,,,0.00,Wunderground v.1.15,2013-02-01 22:40:00,
2013-02-01 17:50:00,25.7,7.3,29.85,NE,47,1.0,1.0,45,0.00,,,0.00,Wunderground v.1.15,2013-02-01 22:50:00,
2013-02-01 17:55:00,25.6,6.7,29.85,SSW,193,1.0,4.0,44,0.00,,,0.00,Wunderground v.1.15,2013-02-01 22:55:00,
2013-02-01 18:00:00,25.4,6.5,29.87,SW,224,0.0,4.0,44,0.00,,,0.00,Wunderground v.1.15,2013-02-01 23:00:00,
2013-02-01 18:09:00,25.3,6.4,29.87,SSE,152,0.0,4.0,44,0.00,,,0.00,Wunderground v.1.15,2013-02-01 23:09:00,
2013-02-01 18:14:00,25.0,5.6,29.88,East,89,1.0,4.0,43,0.00,,,0.00,Wunderground v.1.15,2013-02-01 23:14:00,
2013-02-01 18:19:00,24.8,6.4,29.88,East,82,1.0,1.0,45,0.00,,,0.00,Wunderground v.1.15,2013-02-01 23:19:00,
2013-02-01 18:24:00,24.7,5.8,29.88,WSW,240,1.0,4.0,44,0.00,,,0.00,Wunderground v.1.15,2013-02-01 23:24:00,
2013-02-01 18:29:00,24.5,5.7,29.90,East,88,0.0,4.0,44,0.00,,,0.00,Wunderground v.1.15,2013-02-01 23:29:00,
2013-02-01 18:34:00,24.4,5.6,29.90,North,0,1.0,4.0,44,0.00,,,0.00,Wunderground v.1.15,2013-02-01 23:34:00,
2013-02-01 18:39:00,24.2,5.4,29.90,SSE,168,0.0,4.0,44,0.00,,,0.00,Wunderground v.1.15,2013-02-01 23:39:00,
2013-02-01 18:44:00,24.2,5.9,29.91,SE,126,0.0,4.0,45,0.00,,,0.00,Wunderground v.1.15,2013-02-01 23:44:00,
2013-02-01 18:54:00,23.9,5.6,29.91,SW,230,1.0,4.0,45,0.00,,,0.00,Wunderground v.1.15,2013-02-01 23:54:00,
2013-02-01 18:59:00,23.8,5.0,29.92,SW,219,0.0,4.0,44,0.00,,,0.00,Wunderground v.1.15,2013-02-01 23:59:00,
2013-02-01 19:04:00,23.6,6.8,29.92,SSW,209,0.0,4.0,48,0.00,,,0.00,Wunderground v.1.15,2013-02-02 00:04:00,
2013-02-01 19:09:00,23.5,5.2,29.92,SE,144,0.0,4.0,45,0.00,,,0.00,Wunderground v.1.15,2013-02-02 00:09:00,
2013-02-01 19:14:00,23.3,5.5,29.93,SE,127,0.0,4.0,46,0.00,,,0.00,Wunderground v.1.15,2013-02-02 00:14:00,
2013-02-01 19:20:00,23.2,5.0,29.93,SSE,167,0.0,4.0,45,0.00,,,0.00,Wunderground v.1.15,2013-02-02 00:20:00,
2013-02-01 19:30:00,23.0,5.7,29.93,SSE,167,0.0,4.0,47,0.00,,,0.00,Wunderground v.1.15,2013-02-02 00:30:00,
2013-02-01 19:35:00,22.9,5.6,29.93,West,275,0.0,4.0,47,0.00,,,0.00,Wunderground v.1.15,2013-02-02 00:35:00,
2013-02-01 19:40:00,22.7,5.5,29.93,West,272,0.0,4.0,47,0.00,,,0.00,Wunderground v.1.15,2013-02-02 00:40:00,
2013-02-01 19:45:00,22.5,5.3,29.94,West,272,0.0,4.0,47,0.00,,,0.00,Wunderground v.1.15,2013-02-02 00:45:00,
2013-02-01 19:50:00,22.5,5.7,29.94,West,272,0.0,4.0,48,0.00,,,0.00,Wunderground v.1.15,2013-02-02 00:50:00,
2013-02-01 20:00:00,22.2,5.9,29.95,West,272,0.0,4.0,49,0.00,,,0.00,Wunderground v.1.15,2013-02-02 01:00:00,
2013-02-01 20:05:00,21.9,5.2,29.95,NNW,340,0.0,4.0,48,0.00,,,0.00,Wunderground v.1.15,2013-02-02 01:05:00,
2013-02-01 20:10:00,21.9,5.6,29.95,NW,326,0.0,4.0,49,0.00,,,0.00,Wunderground v.1.15,2013-02-02 01:10:00,
2013-02-01 20:15:00,21.8,5.5,29.95,NW,326,0.0,4.0,49,0.00,,,0.00,Wunderground v.1.15,2013-02-02 01:15:00,
2013-02-01 20:24:00,21.6,5.4,29.95,NW,326,0.0,4.0,49,0.00,,,0.00,Wunderground v.1.15,2013-02-02 01:24:00,
2013-02-01 20:30:00,21.4,5.6,29.96,NW,323,0.0,4.0,50,0.00,,,0.00,Wunderground v.1.15,2013-02-02 01:30:00,
2013-02-01 20:39:00,21.1,5.3,29.96,NW,323,0.0,4.0,50,0.00,,,0.00,Wunderground v.1.15,2013-02-02 01:39:00,
2013-02-01 20:44:00,21.1,5.8,29.96,NW,323,0.0,4.0,51,0.00,,,0.00,Wunderground v.1.15,2013-02-02 01:44:00,
2013-02-01 20:49:00,21.0,5.2,29.96,NW,323,0.0,4.0,50,0.00,,,0.00,Wunderground v.1.15,2013-02-02 01:49:00,
2013-02-01 20:54:00,21.0,5.7,29.96,NW,323,0.0,4.0,51,0.00,,,0.00,Wunderground v.1.15,2013-02-02 01:54:00,
2013-02-01 20:59:00,20.8,5.5,29.97,NW,323,0.0,4.0,51,0.00,,,0.00,Wunderground v.1.15,2013-02-02 01:59:00,
2013-02-01 21:09:00,20.6,5.3,29.97,ENE,78,0.0,4.0,51,0.00,,,0.00,Wunderground v.1.15,2013-02-02 02:09:00,
2013-02-01 21:14:00,20.5,5.6,29.97,SSW,195,0.0,4.0,52,0.00,,,0.00,Wunderground v.1.15,2013-02-02 02:14:00,
2013-02-01 21:19:00,20.5,5.6,29.97,WNW,285,0.0,4.0,52,0.00,,,0.00,Wunderground v.1.15,2013-02-02 02:19:00,
2013-02-01 21:24:00,20.5,5.6,29.97,WNW,285,0.0,4.0,52,0.00,,,0.00,Wunderground v.1.15,2013-02-02 02:24:00,
2013-02-01 21:29:00,20.5,5.2,29.98,WNW,285,0.0,4.0,51,0.00,,,0.00,Wunderground v.1.15,2013-02-02 02:29:00,
2013-02-01 21:39:00,20.3,5.0,29.98,WNW,285,0.0,4.0,51,0.00,,,0.00,Wunderground v.1.15,2013-02-02 02:39:00,
2013-02-01 21:44:00,20.3,5.0,29.98,West,274,0.0,4.0,51,0.00,,,0.00,Wunderground v.1.15,2013-02-02 02:44:00,
2013-02-01 21:49:00,20.3,5.5,29.98,SE,138,0.0,4.0,52,0.00,,,0.00,Wunderground v.1.15,2013-02-02 02:49:00,
2013-02-01 21:54:00,20.3,5.5,29.98,SSE,168,0.0,4.0,52,0.00,,,0.00,Wunderground v.1.15,2013-02-02 02:54:00,
2013-02-01 21:59:00,20.3,4.6,29.98,SW,226,0.0,4.0,50,0.00,,,0.00,Wunderground v.1.15,2013-02-02 02:59:00,
2013-02-01 22:05:00,20.5,4.8,29.98,South,191,0.0,4.0,50,0.00,,,0.00,Wunderground v.1.15,2013-02-02 03:05:00,
2013-02-01 22:14:00,20.6,4.9,29.98,SE,138,0.0,4.0,50,0.00,,,0.00,Wunderground v.1.15,2013-02-02 03:14:00,
2013-02-01 22:19:00,20.6,4.4,29.98,SE,141,0.0,4.0,49,0.00,,,0.00,Wunderground v.1.15,2013-02-02 03:19:00,
2013-02-01 22:24:00,20.6,4.4,29.98,NW,315,0.0,4.0,49,0.00,,,0.00,Wunderground v.1.15,2013-02-02 03:24:00,
2013-02-01 22:29:00,20.6,4.9,29.98,WSW,258,0.0,4.0,50,0.00,,,0.00,Wunderground v.1.15,2013-02-02 03:29:00,
2013-02-01 22:35:00,20.6,4.4,29.98,SW,222,0.0,4.0,49,0.00,,,0.00,Wunderground v.1.15,2013-02-02 03:35:00,
2013-02-01 22:44:00,20.6,4.4,29.99,West,260,0.0,4.0,49,0.00,,,0.00,Wunderground v.1.15,2013-02-02 03:44:00,
2013-02-01 22:50:00,20.6,4.9,29.99,SSE,162,0.0,4.0,50,0.00,,,0.00,Wunderground v.1.15,2013-02-02 03:50:00,
2013-02-01 22:55:00,20.6,4.4,29.99,SW,232,0.0,4.0,49,0.00,,,0.00,Wunderground v.1.15,2013-02-02 03:55:00,
2013-02-01 23:00:00,20.6,4.4,29.99,SW,222,0.0,4.0,49,0.00,,,0.00,Wunderground v.1.15,2013-02-02 04:00:00,
2013-02-01 23:05:00,20.6,4.9,29.99,SW,222,0.0,4.0,50,0.00,,,0.00,Wunderground v.1.15,2013-02-02 04:05:00,
2013-02-01 23:15:00,20.6,4.9,30.00,South,184,0.0,4.0,50,0.00,,,0.00,Wunderground v.1.15,2013-02-02 04:15:00,
2013-02-01 23:20:00,20.6,5.3,30.00,South,184,0.0,4.0,51,0.00,,,0.00,Wunderground v.1.15,2013-02-02 04:20:00,
2013-02-01 23:29:00,20.5,4.8,30.01,South,184,0.0,4.0,50,0.00,,,0.00,Wunderground v.1.15,2013-02-02 04:29:00,
2013-02-01 23:34:00,20.3,5.0,30.01,South,184,0.0,4.0,51,0.00,,,0.00,Wunderground v.1.15,2013-02-02 04:34:00,
2013-02-01 23:39:00,20.2,4.9,30.01,South,184,0.0,4.0,51,0.00,,,0.00,Wunderground v.1.15,2013-02-02 04:39:00,
2013-02-01 23:44:00,20.0,5.2,30.02,South,184,0.0,4.0,52,0.00,,,0.00,Wunderground v.1.15,2013-02-02 04:44:00,
2013-02-01 23:54:00,19.7,5.3,30.02,South,184,0.0,4.0,53,0.00,,,0.00,Wunderground v.1.15,2013-02-02 04:54:00,
2013-02-01 23:59:00,19.5,5.1,30.02,South,172,0.0,4.0,53,0.00,,,0.00,Wunderground v.1.15,2013-02-02 04:59:00,